sensor_id;sensor_type;location;lat;lon;timestamp;P1;durP1;ratioP1;P2;durP2;ratioP2
29838;SDS011;18669;53.356;-1.464;2022-12-13T10:10:34;30.33;;;13.43;;
29838;SDS011;18669;53.356;-1.464;2022-12-13T10:13:15;34.58;;;15.07;;
29838;SDS011;18669;53.356;-1.464;2022-12-13T10:15:48;40.70;;;17.67;;
29838;SDS011;18669;53.356;-1.464;2022-12-13T10:18:21;41.92;;;18.73;;
29838;SDS011;18669;53.356;-1.464;2022-12-13T10:20:56;37.33;;;15.85;;
29838;SDS011;18669;53.356;-1.464;2022-12-13T10:23:26;40.97;;;16.50;;
29838;SDS011;18669;53.356;-1.464;2022-12-13T10:25:56;37.25;;;16.42;;
29838;SDS011;18669;53.356;-1.464;2022-12-13T10:28:28;30.60;;;14.52;;
29838;SDS011;18669;53.356;-1.464;2022-12-13T10:30:57;34.40;;;15.95;;
29838;SDS011;18669;53.356;-1.464;2022-12-13T10:38:42;31.45;;;14.98;;
29838;SDS011;18669;53.356;-1.464;2022-12-13T10:41:32;29.33;;;13.48;;
29838;SDS011;18669;53.356;-1.464;2022-12-13T10:44:06;26.63;;;12.57;;
29838;SDS011;18669;53.356;-1.464;2022-12-13T10:46:37;31.88;;;14.90;;
29838;SDS011;18669;53.356;-1.464;2022-12-13T10:49:19;35.28;;;14.63;;
29838;SDS011;18669;53.356;-1.464;2022-12-13T10:51:48;28.65;;;13.82;;
29838;SDS011;18669;53.356;-1.464;2022-12-13T10:54:28;30.58;;;15.18;;
29838;SDS011;18669;53.356;-1.464;2022-12-13T10:56:56;33.58;;;15.10;;
29838;SDS011;18669;53.356;-1.464;2022-12-13T10:59:30;33.90;;;16.17;;
29838;SDS011;18669;53.356;-1.464;2022-12-13T11:04:58;29.25;;;14.80;;
29838;SDS011;18669;53.356;-1.464;2022-12-13T11:07:41;28.77;;;14.88;;
29838;SDS011;18669;53.356;-1.464;2022-12-13T11:13:01;32.30;;;16.87;;
29838;SDS011;18669;53.356;-1.464;2022-12-13T11:15:30;35.00;;;15.07;;
29838;SDS011;18669;53.356;-1.464;2022-12-13T11:18:00;34.58;;;17.23;;
29838;SDS011;18669;53.356;-1.464;2022-12-13T11:20:31;35.92;;;16.95;;
29838;SDS011;18669;53.356;-1.464;2022-12-13T11:25:40;27.88;;;14.30;;
29838;SDS011;18669;53.356;-1.464;2022-12-13T11:28:15;28.50;;;15.13;;
29838;SDS011;18669;53.356;-1.464;2022-12-13T11:42:04;20.85;;;11.30;;
29838;SDS011;18669;53.356;-1.464;2022-12-13T11:47:44;23.30;;;12.80;;
29838;SDS011;18669;53.356;-1.464;2022-12-13T11:50:21;26.48;;;14.02;;
29838;SDS011;18669;53.356;-1.464;2022-12-13T11:52:53;26.33;;;13.30;;
29838;SDS011;18669;53.356;-1.464;2022-12-13T11:55:34;26.33;;;12.88;;
29838;SDS011;18669;53.356;-1.464;2022-12-13T12:01:03;26.40;;;13.52;;
29838;SDS011;18669;53.356;-1.464;2022-12-13T12:03:45;24.58;;;13.73;;
29838;SDS011;18669;53.356;-1.464;2022-12-13T12:06:17;27.90;;;14.60;;
29838;SDS011;18669;53.356;-1.464;2022-12-13T12:08:51;23.27;;;13.30;;
29838;SDS011;18669;53.356;-1.464;2022-12-13T12:14:11;28.17;;;14.20;;
29838;SDS011;18669;53.356;-1.464;2022-12-13T12:16:51;29.15;;;14.65;;
29838;SDS011;18669;53.356;-1.464;2022-12-13T12:19:22;27.38;;;14.85;;
29838;SDS011;18669;53.356;-1.464;2022-12-13T12:22:10;24.20;;;14.07;;
29838;SDS011;18669;53.356;-1.464;2022-12-13T12:30:16;31.40;;;16.35;;
29838;SDS011;18669;53.356;-1.464;2022-12-13T12:43:42;28.48;;;15.18;;
29838;SDS011;18669;53.356;-1.464;2022-12-13T12:56:49;27.95;;;15.18;;
29838;SDS011;18669;53.356;-1.464;2022-12-13T12:59:34;26.42;;;14.77;;
29838;SDS011;18669;53.356;-1.464;2022-12-13T13:05:19;31.73;;;15.70;;
29838;SDS011;18669;53.356;-1.464;2022-12-13T13:07:53;29.73;;;14.90;;
29838;SDS011;18669;53.356;-1.464;2022-12-13T13:10:27;29.90;;;15.70;;
29838;SDS011;18669;53.356;-1.464;2022-12-13T13:12:54;30.33;;;15.52;;
29838;SDS011;18669;53.356;-1.464;2022-12-13T13:17:56;31.85;;;14.63;;
29838;SDS011;18669;53.356;-1.464;2022-12-13T13:20:24;27.55;;;15.75;;
29838;SDS011;18669;53.356;-1.464;2022-12-13T13:22:55;34.00;;;15.43;;
29838;SDS011;18669;53.356;-1.464;2022-12-13T13:25:29;29.80;;;15.55;;
29838;SDS011;18669;53.356;-1.464;2022-12-13T13:28:01;34.45;;;17.10;;
29838;SDS011;18669;53.356;-1.464;2022-12-13T13:30:38;44.40;;;20.60;;
29838;SDS011;18669;53.356;-1.464;2022-12-13T13:33:42;34.17;;;16.05;;
29838;SDS011;18669;53.356;-1.464;2022-12-13T13:39:01;31.90;;;15.77;;
29838;SDS011;18669;53.356;-1.464;2022-12-13T13:41:38;34.00;;;15.70;;
29838;SDS011;18669;53.356;-1.464;2022-12-13T14:03:53;46.65;;;19.40;;
29838;SDS011;18669;53.356;-1.464;2022-12-13T14:06:50;39.80;;;16.63;;
29838;SDS011;18669;53.356;-1.464;2022-12-13T14:20:27;35.05;;;17.75;;
29838;SDS011;18669;53.356;-1.464;2022-12-13T14:31:14;37.10;;;18.10;;
29838;SDS011;18669;53.356;-1.464;2022-12-13T14:33:45;42.00;;;17.20;;
29838;SDS011;18669;53.356;-1.464;2022-12-13T14:36:13;38.47;;;17.83;;
29838;SDS011;18669;53.356;-1.464;2022-12-13T14:38:42;38.80;;;19.05;;
29838;SDS011;18669;53.356;-1.464;2022-12-13T14:41:17;35.30;;;16.67;;
29838;SDS011;18669;53.356;-1.464;2022-12-13T14:43:44;36.22;;;17.10;;
29838;SDS011;18669;53.356;-1.464;2022-12-13T14:48:42;38.65;;;17.80;;
29838;SDS011;18669;53.356;-1.464;2022-12-13T14:54:04;42.80;;;19.48;;
29838;SDS011;18669;53.356;-1.464;2022-12-13T14:56:32;38.42;;;16.95;;
29838;SDS011;18669;53.356;-1.464;2022-12-13T14:59:01;38.08;;;17.48;;
29838;SDS011;18669;53.356;-1.464;2022-12-13T15:01:36;40.15;;;18.85;;
29838;SDS011;18669;53.356;-1.464;2022-12-13T15:04:24;39.38;;;19.15;;
29838;SDS011;18669;53.356;-1.464;2022-12-13T15:06:54;37.25;;;18.70;;
29838;SDS011;18669;53.356;-1.464;2022-12-13T15:09:21;39.72;;;18.27;;
29838;SDS011;18669;53.356;-1.464;2022-12-13T15:11:48;39.97;;;17.92;;
29838;SDS011;18669;53.356;-1.464;2022-12-13T15:14:17;43.22;;;17.95;;
29838;SDS011;18669;53.356;-1.464;2022-12-13T15:16:49;38.42;;;18.10;;
29838;SDS011;18669;53.356;-1.464;2022-12-13T15:24:29;43.90;;;19.50;;
29838;SDS011;18669;53.356;-1.464;2022-12-13T15:26:58;46.85;;;20.38;;
29838;SDS011;18669;53.356;-1.464;2022-12-13T15:29:26;43.20;;;19.08;;
29838;SDS011;18669;53.356;-1.464;2022-12-13T15:31:56;45.72;;;19.73;;
29838;SDS011;18669;53.356;-1.464;2022-12-13T15:36:55;52.28;;;22.90;;
29838;SDS011;18669;53.356;-1.464;2022-12-13T15:39:24;54.90;;;22.58;;
29838;SDS011;18669;53.356;-1.464;2022-12-13T15:41:52;57.00;;;22.70;;
29838;SDS011;18669;53.356;-1.464;2022-12-13T15:44:22;58.75;;;22.95;;
29838;SDS011;18669;53.356;-1.464;2022-12-13T15:46:52;55.15;;;23.02;;
29838;SDS011;18669;53.356;-1.464;2022-12-13T15:52:27;57.72;;;23.35;;
29838;SDS011;18669;53.356;-1.464;2022-12-13T15:57:48;64.53;;;23.52;;
29838;SDS011;18669;53.356;-1.464;2022-12-13T16:02:52;55.80;;;23.52;;
29838;SDS011;18669;53.356;-1.464;2022-12-13T16:05:37;53.85;;;22.88;;
29838;SDS011;18669;53.356;-1.464;2022-12-13T16:10:46;61.20;;;24.73;;
29838;SDS011;18669;53.356;-1.464;2022-12-13T16:13:25;67.43;;;25.52;;
29838;SDS011;18669;53.356;-1.464;2022-12-13T16:15:54;60.85;;;23.67;;
29838;SDS011;18669;53.356;-1.464;2022-12-13T16:18:23;75.72;;;30.95;;
29838;SDS011;18669;53.356;-1.464;2022-12-13T16:20:55;56.63;;;25.17;;
29838;SDS011;18669;53.356;-1.464;2022-12-13T16:23:22;60.08;;;24.15;;
29838;SDS011;18669;53.356;-1.464;2022-12-13T16:25:49;60.90;;;25.80;;
29838;SDS011;18669;53.356;-1.464;2022-12-13T16:33:23;71.88;;;30.73;;
29838;SDS011;18669;53.356;-1.464;2022-12-13T16:35:50;64.47;;;26.25;;
29838;SDS011;18669;53.356;-1.464;2022-12-13T16:38:18;61.63;;;27.40;;
29838;SDS011;18669;53.356;-1.464;2022-12-13T16:40:45;67.00;;;26.73;;
29838;SDS011;18669;53.356;-1.464;2022-12-13T16:43:16;77.80;;;30.42;;
29838;SDS011;18669;53.356;-1.464;2022-12-13T16:45:47;71.55;;;29.23;;
29838;SDS011;18669;53.356;-1.464;2022-12-13T16:48:15;71.82;;;29.30;;
29838;SDS011;18669;53.356;-1.464;2022-12-13T16:50:44;66.85;;;29.85;;
29838;SDS011;18669;53.356;-1.464;2022-12-13T16:53:12;63.97;;;26.10;;
29838;SDS011;18669;53.356;-1.464;2022-12-13T16:55:39;63.08;;;24.80;;
29838;SDS011;18669;53.356;-1.464;2022-12-13T16:58:09;59.47;;;26.02;;
29838;SDS011;18669;53.356;-1.464;2022-12-13T17:00:37;64.30;;;25.45;;
29838;SDS011;18669;53.356;-1.464;2022-12-13T17:05:29;53.33;;;21.85;;
29838;SDS011;18669;53.356;-1.464;2022-12-13T17:10:22;53.17;;;20.20;;
29838;SDS011;18669;53.356;-1.464;2022-12-13T17:12:48;52.63;;;22.08;;
29838;SDS011;18669;53.356;-1.464;2022-12-13T17:15:15;56.75;;;23.23;;
29838;SDS011;18669;53.356;-1.464;2022-12-13T17:20:08;58.78;;;22.25;;
29838;SDS011;18669;53.356;-1.464;2022-12-13T17:22:37;57.25;;;21.85;;
29838;SDS011;18669;53.356;-1.464;2022-12-13T17:27:30;51.00;;;20.90;;
29838;SDS011;18669;53.356;-1.464;2022-12-13T17:29:56;50.78;;;20.70;;
29838;SDS011;18669;53.356;-1.464;2022-12-13T17:32:24;50.60;;;20.45;;
29838;SDS011;18669;53.356;-1.464;2022-12-13T17:37:16;54.75;;;22.05;;
29838;SDS011;18669;53.356;-1.464;2022-12-13T17:42:09;52.65;;;21.60;;
29838;SDS011;18669;53.356;-1.464;2022-12-13T17:44:35;45.78;;;21.08;;
29838;SDS011;18669;53.356;-1.464;2022-12-13T17:47:01;62.85;;;23.27;;
29838;SDS011;18669;53.356;-1.464;2022-12-13T17:51:53;54.83;;;20.40;;
29838;SDS011;18669;53.356;-1.464;2022-12-13T17:54:20;56.85;;;24.08;;
29838;SDS011;18669;53.356;-1.464;2022-12-13T17:56:47;57.47;;;22.80;;
29838;SDS011;18669;53.356;-1.464;2022-12-13T17:59:13;51.28;;;23.70;;
29838;SDS011;18669;53.356;-1.464;2022-12-13T18:01:43;52.15;;;22.73;;
29838;SDS011;18669;53.356;-1.464;2022-12-13T18:04:11;56.90;;;24.20;;
29838;SDS011;18669;53.356;-1.464;2022-12-13T18:06:37;62.38;;;28.23;;
29838;SDS011;18669;53.356;-1.464;2022-12-13T18:09:06;58.25;;;24.63;;
29838;SDS011;18669;53.356;-1.464;2022-12-13T18:11:33;51.60;;;23.95;;
29838;SDS011;18669;53.356;-1.464;2022-12-13T18:14:00;64.07;;;26.92;;
29838;SDS011;18669;53.356;-1.464;2022-12-13T18:16:28;55.63;;;24.58;;
29838;SDS011;18669;53.356;-1.464;2022-12-13T18:18:54;57.30;;;23.17;;
29838;SDS011;18669;53.356;-1.464;2022-12-13T18:21:23;56.65;;;23.67;;
29838;SDS011;18669;53.356;-1.464;2022-12-13T18:23:50;55.85;;;23.55;;
29838;SDS011;18669;53.356;-1.464;2022-12-13T18:26:17;55.78;;;24.08;;
29838;SDS011;18669;53.356;-1.464;2022-12-13T18:28:44;49.88;;;24.20;;
29838;SDS011;18669;53.356;-1.464;2022-12-13T18:31:12;58.00;;;24.55;;
29838;SDS011;18669;53.356;-1.464;2022-12-13T18:33:43;53.05;;;24.17;;
29838;SDS011;18669;53.356;-1.464;2022-12-13T18:36:14;53.58;;;24.33;;
29838;SDS011;18669;53.356;-1.464;2022-12-13T18:38:41;57.53;;;25.55;;
29838;SDS011;18669;53.356;-1.464;2022-12-13T18:41:08;57.55;;;25.02;;
29838;SDS011;18669;53.356;-1.464;2022-12-13T18:43:38;56.00;;;22.80;;
29838;SDS011;18669;53.356;-1.464;2022-12-13T18:46:05;54.80;;;25.50;;
29838;SDS011;18669;53.356;-1.464;2022-12-13T18:48:32;59.03;;;24.13;;
29838;SDS011;18669;53.356;-1.464;2022-12-13T18:50:59;58.03;;;24.27;;
29838;SDS011;18669;53.356;-1.464;2022-12-13T18:53:26;51.60;;;21.10;;
29838;SDS011;18669;53.356;-1.464;2022-12-13T18:55:58;58.33;;;24.27;;
29838;SDS011;18669;53.356;-1.464;2022-12-13T18:58:26;52.85;;;23.38;;
29838;SDS011;18669;53.356;-1.464;2022-12-13T19:00:52;57.50;;;22.75;;
29838;SDS011;18669;53.356;-1.464;2022-12-13T19:03:20;51.55;;;23.60;;
29838;SDS011;18669;53.356;-1.464;2022-12-13T19:05:46;55.83;;;23.33;;
29838;SDS011;18669;53.356;-1.464;2022-12-13T19:08:13;51.17;;;21.25;;
29838;SDS011;18669;53.356;-1.464;2022-12-13T19:10:42;57.15;;;23.25;;
29838;SDS011;18669;53.356;-1.464;2022-12-13T19:13:09;57.58;;;23.10;;
29838;SDS011;18669;53.356;-1.464;2022-12-13T19:15:37;58.33;;;22.17;;
29838;SDS011;18669;53.356;-1.464;2022-12-13T19:18:04;51.92;;;23.25;;
29838;SDS011;18669;53.356;-1.464;2022-12-13T19:20:31;57.30;;;22.52;;
29838;SDS011;18669;53.356;-1.464;2022-12-13T19:22:57;54.15;;;23.30;;
29838;SDS011;18669;53.356;-1.464;2022-12-13T19:25:23;56.92;;;24.67;;
29838;SDS011;18669;53.356;-1.464;2022-12-13T19:27:49;52.65;;;23.50;;
29838;SDS011;18669;53.356;-1.464;2022-12-13T19:30:15;59.35;;;24.60;;
29838;SDS011;18669;53.356;-1.464;2022-12-13T19:32:48;53.35;;;24.00;;
29838;SDS011;18669;53.356;-1.464;2022-12-13T19:35:14;60.33;;;24.75;;
29838;SDS011;18669;53.356;-1.464;2022-12-13T19:37:41;58.08;;;23.35;;
29838;SDS011;18669;53.356;-1.464;2022-12-13T19:40:07;60.63;;;24.35;;
29838;SDS011;18669;53.356;-1.464;2022-12-13T19:42:34;60.58;;;23.50;;
29838;SDS011;18669;53.356;-1.464;2022-12-13T19:45:00;59.88;;;24.05;;
29838;SDS011;18669;53.356;-1.464;2022-12-13T19:47:31;60.65;;;24.02;;
29838;SDS011;18669;53.356;-1.464;2022-12-13T19:49:57;60.17;;;25.52;;
29838;SDS011;18669;53.356;-1.464;2022-12-13T19:52:23;61.15;;;26.15;;
29838;SDS011;18669;53.356;-1.464;2022-12-13T19:54:50;66.75;;;25.98;;
29838;SDS011;18669;53.356;-1.464;2022-12-13T19:57:16;58.42;;;25.48;;
29838;SDS011;18669;53.356;-1.464;2022-12-13T19:59:43;67.45;;;24.95;;
29838;SDS011;18669;53.356;-1.464;2022-12-13T20:02:10;58.03;;;24.65;;
29838;SDS011;18669;53.356;-1.464;2022-12-13T20:04:39;68.68;;;25.30;;
29838;SDS011;18669;53.356;-1.464;2022-12-13T20:07:05;51.25;;;22.73;;
29838;SDS011;18669;53.356;-1.464;2022-12-13T20:09:32;63.08;;;25.08;;
29838;SDS011;18669;53.356;-1.464;2022-12-13T20:11:58;57.70;;;25.33;;
29838;SDS011;18669;53.356;-1.464;2022-12-13T20:14:24;56.78;;;25.17;;
29838;SDS011;18669;53.356;-1.464;2022-12-13T20:16:50;61.25;;;24.05;;
29838;SDS011;18669;53.356;-1.464;2022-12-13T20:19:16;64.00;;;25.55;;
29838;SDS011;18669;53.356;-1.464;2022-12-13T20:21:44;53.95;;;23.33;;
29838;SDS011;18669;53.356;-1.464;2022-12-13T20:24:10;54.28;;;24.02;;
29838;SDS011;18669;53.356;-1.464;2022-12-13T20:26:37;58.22;;;23.98;;
29838;SDS011;18669;53.356;-1.464;2022-12-13T20:29:03;54.10;;;21.98;;
29838;SDS011;18669;53.356;-1.464;2022-12-13T20:31:31;57.22;;;23.25;;
29838;SDS011;18669;53.356;-1.464;2022-12-13T20:34:00;61.70;;;23.83;;
29838;SDS011;18669;53.356;-1.464;2022-12-13T20:36:28;52.90;;;22.73;;
29838;SDS011;18669;53.356;-1.464;2022-12-13T20:38:56;53.83;;;21.80;;
29838;SDS011;18669;53.356;-1.464;2022-12-13T20:41:25;52.63;;;23.38;;
29838;SDS011;18669;53.356;-1.464;2022-12-13T20:43:54;56.65;;;22.63;;
29838;SDS011;18669;53.356;-1.464;2022-12-13T20:46:22;53.85;;;23.23;;
29838;SDS011;18669;53.356;-1.464;2022-12-13T20:48:49;57.85;;;23.40;;
29838;SDS011;18669;53.356;-1.464;2022-12-13T20:51:16;56.47;;;23.42;;
29838;SDS011;18669;53.356;-1.464;2022-12-13T20:53:46;60.28;;;24.10;;
29838;SDS011;18669;53.356;-1.464;2022-12-13T20:56:16;58.65;;;25.05;;
29838;SDS011;18669;53.356;-1.464;2022-12-13T20:58:44;58.95;;;25.60;;
29838;SDS011;18669;53.356;-1.464;2022-12-13T21:01:18;60.13;;;24.83;;
29838;SDS011;18669;53.356;-1.464;2022-12-13T21:03:47;49.88;;;22.00;;
29838;SDS011;18669;53.356;-1.464;2022-12-13T21:06:14;52.13;;;21.85;;
29838;SDS011;18669;53.356;-1.464;2022-12-13T21:08:40;52.28;;;22.88;;
29838;SDS011;18669;53.356;-1.464;2022-12-13T21:11:26;54.30;;;22.73;;
29838;SDS011;18669;53.356;-1.464;2022-12-13T21:14:01;62.50;;;23.98;;
29838;SDS011;18669;53.356;-1.464;2022-12-13T21:16:29;53.45;;;22.50;;
29838;SDS011;18669;53.356;-1.464;2022-12-13T21:18:57;57.10;;;21.83;;
29838;SDS011;18669;53.356;-1.464;2022-12-13T21:21:26;52.50;;;20.60;;
29838;SDS011;18669;53.356;-1.464;2022-12-13T21:23:53;49.25;;;21.50;;
29838;SDS011;18669;53.356;-1.464;2022-12-13T21:26:21;55.30;;;22.13;;
29838;SDS011;18669;53.356;-1.464;2022-12-13T21:28:51;57.22;;;23.50;;
29838;SDS011;18669;53.356;-1.464;2022-12-13T21:31:21;51.72;;;22.13;;
29838;SDS011;18669;53.356;-1.464;2022-12-13T21:33:50;48.97;;;22.33;;
29838;SDS011;18669;53.356;-1.464;2022-12-13T21:36:19;54.42;;;22.83;;
29838;SDS011;18669;53.356;-1.464;2022-12-13T21:38:54;57.88;;;22.92;;
29838;SDS011;18669;53.356;-1.464;2022-12-13T21:41:23;54.00;;;22.05;;
29838;SDS011;18669;53.356;-1.464;2022-12-13T21:43:50;53.13;;;21.55;;
29838;SDS011;18669;53.356;-1.464;2022-12-13T21:46:18;51.70;;;22.77;;
29838;SDS011;18669;53.356;-1.464;2022-12-13T21:48:45;50.50;;;21.77;;
29838;SDS011;18669;53.356;-1.464;2022-12-13T21:51:13;57.90;;;22.58;;
29838;SDS011;18669;53.356;-1.464;2022-12-13T21:53:41;60.60;;;23.77;;
29838;SDS011;18669;53.356;-1.464;2022-12-13T21:56:09;54.40;;;23.25;;
29838;SDS011;18669;53.356;-1.464;2022-12-13T21:58:58;54.35;;;23.23;;
29838;SDS011;18669;53.356;-1.464;2022-12-13T22:01:47;53.17;;;22.88;;
29838;SDS011;18669;53.356;-1.464;2022-12-13T22:04:41;56.45;;;24.17;;
29838;SDS011;18669;53.356;-1.464;2022-12-13T22:07:12;54.00;;;22.85;;
29838;SDS011;18669;53.356;-1.464;2022-12-13T22:09:42;51.53;;;21.67;;
29838;SDS011;18669;53.356;-1.464;2022-12-13T22:12:15;54.78;;;22.45;;
29838;SDS011;18669;53.356;-1.464;2022-12-13T22:14:44;61.35;;;24.65;;
29838;SDS011;18669;53.356;-1.464;2022-12-13T22:17:11;50.97;;;23.42;;
29838;SDS011;18669;53.356;-1.464;2022-12-13T22:19:38;56.25;;;22.05;;
29838;SDS011;18669;53.356;-1.464;2022-12-13T22:22:05;53.65;;;22.35;;
29838;SDS011;18669;53.356;-1.464;2022-12-13T22:24:31;53.80;;;21.80;;
29838;SDS011;18669;53.356;-1.464;2022-12-13T22:29:23;44.83;;;19.77;;
29838;SDS011;18669;53.356;-1.464;2022-12-13T22:31:49;54.20;;;21.15;;
29838;SDS011;18669;53.356;-1.464;2022-12-13T22:34:15;51.58;;;22.10;;
29838;SDS011;18669;53.356;-1.464;2022-12-13T22:36:42;57.72;;;22.17;;
29838;SDS011;18669;53.356;-1.464;2022-12-13T22:39:16;60.92;;;26.45;;
29838;SDS011;18669;53.356;-1.464;2022-12-13T22:41:43;53.85;;;22.30;;
29838;SDS011;18669;53.356;-1.464;2022-12-13T22:44:10;53.80;;;24.60;;
29838;SDS011;18669;53.356;-1.464;2022-12-13T22:46:37;54.45;;;22.42;;
29838;SDS011;18669;53.356;-1.464;2022-12-13T22:49:04;48.70;;;21.02;;
29838;SDS011;18669;53.356;-1.464;2022-12-13T22:51:31;54.13;;;21.77;;
29838;SDS011;18669;53.356;-1.464;2022-12-13T22:53:57;53.13;;;20.88;;
29838;SDS011;18669;53.356;-1.464;2022-12-13T22:56:23;50.88;;;20.92;;
29838;SDS011;18669;53.356;-1.464;2022-12-13T22:58:57;50.40;;;19.95;;
29838;SDS011;18669;53.356;-1.464;2022-12-13T23:01:30;42.58;;;18.52;;
29838;SDS011;18669;53.356;-1.464;2022-12-13T23:03:59;53.05;;;20.73;;
29838;SDS011;18669;53.356;-1.464;2022-12-13T23:06:27;51.35;;;21.13;;
29838;SDS011;18669;53.356;-1.464;2022-12-13T23:08:55;51.92;;;20.60;;
29838;SDS011;18669;53.356;-1.464;2022-12-13T23:11:23;48.65;;;20.67;;
29838;SDS011;18669;53.356;-1.464;2022-12-13T23:14:10;46.45;;;20.15;;
29838;SDS011;18669;53.356;-1.464;2022-12-13T23:16:38;55.78;;;21.75;;
29838;SDS011;18669;53.356;-1.464;2022-12-13T23:19:06;49.75;;;20.92;;
29838;SDS011;18669;53.356;-1.464;2022-12-13T23:21:35;54.05;;;23.00;;
29838;SDS011;18669;53.356;-1.464;2022-12-13T23:24:01;60.38;;;23.63;;
29838;SDS011;18669;53.356;-1.464;2022-12-13T23:26:29;55.08;;;22.80;;
29838;SDS011;18669;53.356;-1.464;2022-12-13T23:28:58;52.00;;;22.48;;
29838;SDS011;18669;53.356;-1.464;2022-12-13T23:31:27;53.35;;;20.63;;
29838;SDS011;18669;53.356;-1.464;2022-12-13T23:33:54;58.30;;;21.95;;
29838;SDS011;18669;53.356;-1.464;2022-12-13T23:36:23;62.28;;;22.52;;
29838;SDS011;18669;53.356;-1.464;2022-12-13T23:38:50;56.25;;;21.75;;
29838;SDS011;18669;53.356;-1.464;2022-12-13T23:43:44;55.00;;;21.85;;
29838;SDS011;18669;53.356;-1.464;2022-12-13T23:46:15;54.53;;;22.63;;
29838;SDS011;18669;53.356;-1.464;2022-12-13T23:48:43;56.17;;;22.88;;
29838;SDS011;18669;53.356;-1.464;2022-12-13T23:51:12;54.17;;;21.52;;
29838;SDS011;18669;53.356;-1.464;2022-12-13T23:53:39;50.45;;;21.80;;
29838;SDS011;18669;53.356;-1.464;2022-12-13T23:56:07;60.25;;;22.05;;
29838;SDS011;18669;53.356;-1.464;2022-12-13T23:58:35;56.50;;;21.95;;
